createdAt,value
2022-12-03T00:07:28.059Z,6.4
2022-12-03T00:37:46.223Z,8.4
2022-12-03T01:08:04.901Z,8.9
2022-12-03T01:38:23.410Z,7.9
2022-12-03T02:39:00.073Z,8.1
2022-12-03T03:39:35.981Z,7.2
2022-12-03T04:40:29.376Z,7.2
2022-12-03T05:10:48.630Z,8.2
2022-12-03T05:41:05.706Z,7.1
2022-12-03T06:11:23.798Z,6.7
2022-12-03T06:41:42.794Z,7.6
2022-12-03T07:12:00.386Z,7.4
2022-12-03T07:42:18.914Z,7.8
2022-12-03T08:12:38.556Z,7.4
2022-12-03T08:42:57.008Z,8.4
2022-12-03T09:13:16.468Z,8.7
2022-12-03T09:44:02.666Z,10.3
2022-12-03T10:14:01.075Z,12.4
2022-12-03T10:44:20.271Z,10
2022-12-03T11:14:42.603Z,9.7
2022-12-03T11:45:00.259Z,13.1
2022-12-03T12:15:19.706Z,14.1
2022-12-03T12:45:37.844Z,10.9
2022-12-03T13:15:55.925Z,12.2
2022-12-03T13:46:14.140Z,13.2
2022-12-03T14:16:32.979Z,12.6
2022-12-03T14:46:56.788Z,10.5
2022-12-03T15:17:15.541Z,13.7
2022-12-03T15:47:33.959Z,11.8
2022-12-03T16:17:52.780Z,12.9
2022-12-03T16:48:10.533Z,14.2
2022-12-03T17:18:28.144Z,14.2
2022-12-03T18:19:06.543Z,14.4
2022-12-03T18:49:23.904Z,14
2022-12-03T19:19:42.335Z,13.2
2022-12-03T19:50:05.286Z,13.8
2022-12-03T20:20:22.049Z,12.9
2022-12-03T20:50:40.956Z,12.6
2022-12-03T21:20:59.093Z,11.5
2022-12-03T21:51:17.643Z,10.7
2022-12-03T22:21:36.432Z,10.4
2022-12-03T22:51:54.015Z,9.8
2022-12-03T23:22:10.934Z,9.4
2022-12-03T23:52:27.448Z,9.1
